Green Valley, AZ (85614)

11:56 PM MST on July 23, 2016 (GMT -0700)
La Canada Desert Homes I | | Change Station

Elev 2930 ft 31.86 °N, 111.00 °W | Updated 2 minutes ago

Clear
Clear
86.0 °F
Feels Like 87 °F
N
2.2
Wind Variable Wind from WNW

Today
High -- | Low -- °F
--% Chance of Precip.
Yesterday
High -- | Low -- °F
Precip. -- in
Pressure 29.75 in
Visibility 10.0 miles
Clouds Clear
Heat Index 87 °F
Dew Point 62 °F
Humidity 45%
Rainfall in
Snow Depth Not available.
5:34 AM 7:26 PM
Waning Gibbous, 79% visible
METAR KTUS 240653Z 28007KT 10SM CLR 33/14 A2993 RMK AO2 SLP075 T03280139 404110283
Pressure 29.75 in
Visibility 10.0 miles
Clouds Clear
Heat Index 87 °F
Dew Point 62 °F
Humidity 45%
Rainfall in
Snow Depth Not available.
5:34 AM 7:26 PM
Waning Gibbous, 79% visible
METAR KTUS 240653Z 28007KT 10SM CLR 33/14 A2993 RMK AO2 SLP075 T03280139 404110283

10-Day Weather Forecast

Almanac

Astronomy

Jul. 23, 2016 Rise Set
Actual Time
Civil Twilight
Nautical Twilight
Astronomical Twilight
Moon
Length of Visible Light
Length of Day
Tomorrow will be .
, % of the Moon is Illuminated

Today's Extremes

State Highs State Lows

Community

WunderPhotos

Upload Photos

1,927,037 photos uploaded!

WunderBlog® & News

Nearby

Air Quality

  Air Quality AQ Index Pollutant
Not available.

Snow Depth

Station Depth Elevation

Earthquake Activity

City Distance Mag. Time & Date
Minimum magnitude displayed is 2.5.

Coastal Water Temperatures

Place Temperature

Stations

Nearby Weather Stations

Station Location Temp. Windchill Dew Point Humidity Wind Precip. Elev Updated Type
                   

Watches & Warnings

There are currently no watches in effect.